KCGZ

Casa Grande Municipal Airport

Casa Grande, Arizona, USA
METAR KCGZ 162156Z AUTO 00000KT 10SM CLR 18/M03 A3014 RMK AO2 SLP203 T01781028 $
Observed Flight Rules
Dec-16 @ 21:56 UTC (25 minutes ago) Visual Flight Rules
Visibility Clouds
10 miles
  • Clear skies
Temperatures Readings
Current 18°C / 64°F
Dewpoint -3°C / 27°F
Humidity 24%
Altimeter 30.14" Hg
Pressure 1020.3 hPa
Elevation 446
METAR KCGZ 162156Z AUTO 00000KT 10SM CLR 18/M03 A3014 RMK AO2 SLP203 T01781028 $
Observed Flight Rules
Dec-16 @ 21:56 UTC
(25 minutes ago)
VFR
Clouds
  • Clear skies
Temperature Dewpoint
18°C / 64°F -3°C / 27°F
Humidity Altimeter Pressure
24% 30.14" Hg 1020.3 hPa